<?xml version="1.0" encoding="UTF-8" standalone="no" ?>
<gpx version="1.1" creator="Visorando" xmlns:xsi="http://www.w3.org/2001/XMLSchema-instance" xmlns="http://www.topografix.com/GPX/1/1" xsi:schemaLocation="http://www.topografix.com/GPX/1/1 http://www.topografix.com/GPX/1/1/gpx.xsd">
<metadata>
  <name>La Fontaine Saint-Maurice à Saint-Robert</name>
  <link href="https://www.visorando.com/randonnee-la-fontaine-saint-maurice-a-saint-robert/">
    <text>https://www.visorando.com/randonnee-la-fontaine-saint-maurice-a-saint-robert/</text>
  </link>
</metadata><wpt lat="45.254942" lon="1.29137">
  <ele>327</ele>
  <time>2026-02-07T14:03:06.000Z</time>
  <name>Place de l'École</name>
  <type>GENERIC</type>
</wpt><wpt lat="45.254057" lon="1.292768">
  <ele>317</ele>
  <time>2026-02-07T14:03:06.000Z</time>
  <name>Rue des Bernadoux</name>
  <type>GENERIC</type>
</wpt><wpt lat="45.251817" lon="1.292192">
  <ele>292</ele>
  <time>2026-02-07T14:08:04.000Z</time>
  <name>Bifurcation sur chemin</name>
  <type>GENERIC</type>
</wpt><wpt lat="45.243165" lon="1.290725">
  <ele>281</ele>
  <time>2026-02-07T14:30:16.000Z</time>
  <name>Entrée de Pinsac</name>
  <type>GENERIC</type>
</wpt><wpt lat="45.243734" lon="1.295034">
  <ele>250</ele>
  <time>2026-02-07T14:37:38.000Z</time>
  <name>Bifurcation</name>
  <type>GENERIC</type>
</wpt><wpt lat="45.245567" lon="1.299842">
  <ele>198</ele>
  <time>2026-02-07T14:48:59.000Z</time>
  <name>Chemin des Bombes</name>
  <type>GENERIC</type>
</wpt><wpt lat="45.245161" lon="1.301455">
  <ele>199</ele>
  <time>2026-02-07T14:51:51.000Z</time>
  <name>Carrefour</name>
  <type>GENERIC</type>
</wpt><wpt lat="45.254018" lon="1.295647">
  <ele>271</ele>
  <time>2026-02-07T15:25:48.000Z</time>
  <name>Fontaine Saint-Maurice</name>
  <type>GENERIC</type>
</wpt><wpt lat="45.255551" lon="1.297159">
  <ele>287</ele>
  <time>2026-02-07T15:32:32.000Z</time>
  <name>Rue Edmond Michelet</name>
  <type>GENERIC</type>
</wpt><wpt lat="45.254937" lon="1.291376">
  <ele>327</ele>
  <time>2026-02-07T15:49:31.000Z</time>
  <name>Place de l'École</name>
  <type>GENERIC</type>
</wpt><trk>
  <name>La Fontaine Saint-Maurice à Saint-Robert</name>
  <trkseg>
    <trkpt lat="45.254942" lon="1.29137">
      <ele>327</ele>
      <time>2026-02-07T14:03:06.000Z</time>
    </trkpt>
    <trkpt lat="45.254839" lon="1.291487">
      <ele>326</ele>
      <time>2026-02-07T14:03:21.000Z</time>
    </trkpt>
    <trkpt lat="45.2546" lon="1.291744">
      <ele>324</ele>
      <time>2026-02-07T14:03:55.000Z</time>
    </trkpt>
    <trkpt lat="45.254387" lon="1.292063">
      <ele>322</ele>
      <time>2026-02-07T14:04:30.000Z</time>
    </trkpt>
    <trkpt lat="45.254288" lon="1.292319">
      <ele>321</ele>
      <time>2026-02-07T14:04:54.000Z</time>
    </trkpt>
    <trkpt lat="45.254158" lon="1.292832">
      <ele>319</ele>
      <time>2026-02-07T14:05:38.000Z</time>
    </trkpt>
    <trkpt lat="45.254054" lon="1.292782">
      <ele>316</ele>
      <time>2026-02-07T14:05:51.000Z</time>
    </trkpt>
    <trkpt lat="45.254057" lon="1.292768">
      <ele>317</ele>
      <time>2026-02-07T14:03:06.000Z</time>
    </trkpt>
    <trkpt lat="45.254054" lon="1.292782">
      <ele>316</ele>
      <time>2026-02-07T14:03:07.000Z</time>
    </trkpt>
    <trkpt lat="45.254042" lon="1.292776">
      <ele>316</ele>
      <time>2026-02-07T14:03:08.000Z</time>
    </trkpt>
    <trkpt lat="45.253896" lon="1.292672">
      <ele>314</ele>
      <time>2026-02-07T14:03:27.000Z</time>
    </trkpt>
    <trkpt lat="45.253756" lon="1.292297">
      <ele>313</ele>
      <time>2026-02-07T14:04:01.000Z</time>
    </trkpt>
    <trkpt lat="45.253689" lon="1.292198">
      <ele>312</ele>
      <time>2026-02-07T14:04:12.000Z</time>
    </trkpt>
    <trkpt lat="45.253681" lon="1.292183">
      <ele>312</ele>
      <time>2026-02-07T14:04:14.000Z</time>
    </trkpt>
    <trkpt lat="45.253555" lon="1.292091">
      <ele>310</ele>
      <time>2026-02-07T14:04:30.000Z</time>
    </trkpt>
    <trkpt lat="45.253157" lon="1.291922">
      <ele>306</ele>
      <time>2026-02-07T14:05:18.000Z</time>
    </trkpt>
    <trkpt lat="45.252756" lon="1.291969">
      <ele>302</ele>
      <time>2026-02-07T14:06:04.000Z</time>
    </trkpt>
    <trkpt lat="45.252062" lon="1.292186">
      <ele>294</ele>
      <time>2026-02-07T14:07:25.000Z</time>
    </trkpt>
    <trkpt lat="45.252062" lon="1.292185">
      <ele>294</ele>
      <time>2026-02-07T14:07:25.000Z</time>
    </trkpt>
    <trkpt lat="45.25206" lon="1.292186">
      <ele>294</ele>
      <time>2026-02-07T14:07:25.000Z</time>
    </trkpt>
    <trkpt lat="45.252003" lon="1.2922">
      <ele>293</ele>
      <time>2026-02-07T14:07:32.000Z</time>
    </trkpt>
    <trkpt lat="45.251967" lon="1.292172">
      <ele>294</ele>
      <time>2026-02-07T14:07:47.000Z</time>
    </trkpt>
    <trkpt lat="45.251817" lon="1.292192">
      <ele>292</ele>
      <time>2026-02-07T14:08:04.000Z</time>
    </trkpt>
    <trkpt lat="45.251817" lon="1.292192">
      <ele>292</ele>
      <time>2026-02-07T14:08:04.000Z</time>
    </trkpt>
    <trkpt lat="45.25172" lon="1.292186">
      <ele>292</ele>
      <time>2026-02-07T14:08:15.000Z</time>
    </trkpt>
    <trkpt lat="45.251524" lon="1.292153">
      <ele>294</ele>
      <time>2026-02-07T14:08:58.000Z</time>
    </trkpt>
    <trkpt lat="45.251369" lon="1.292039">
      <ele>293</ele>
      <time>2026-02-07T14:09:18.000Z</time>
    </trkpt>
    <trkpt lat="45.251367" lon="1.292043">
      <ele>294</ele>
      <time>2026-02-07T14:09:08.000Z</time>
    </trkpt>
    <trkpt lat="45.25118" lon="1.291862">
      <ele>295</ele>
      <time>2026-02-07T14:09:28.000Z</time>
    </trkpt>
    <trkpt lat="45.251033" lon="1.29161">
      <ele>295</ele>
      <time>2026-02-07T14:09:51.000Z</time>
    </trkpt>
    <trkpt lat="45.25095" lon="1.291299">
      <ele>296</ele>
      <time>2026-02-07T14:10:13.000Z</time>
    </trkpt>
    <trkpt lat="45.250891" lon="1.290988">
      <ele>298</ele>
      <time>2026-02-07T14:10:32.000Z</time>
    </trkpt>
    <trkpt lat="45.250775" lon="1.290709">
      <ele>299</ele>
      <time>2026-02-07T14:11:25.000Z</time>
    </trkpt>
    <trkpt lat="45.250675" lon="1.29041">
      <ele>299</ele>
      <time>2026-02-07T14:11:53.000Z</time>
    </trkpt>
    <trkpt lat="45.250633" lon="1.290095">
      <ele>300</ele>
      <time>2026-02-07T14:12:22.000Z</time>
    </trkpt>
    <trkpt lat="45.250565" lon="1.289785">
      <ele>300</ele>
      <time>2026-02-07T14:12:51.000Z</time>
    </trkpt>
    <trkpt lat="45.250479" lon="1.289483">
      <ele>299</ele>
      <time>2026-02-07T14:13:19.000Z</time>
    </trkpt>
    <trkpt lat="45.250406" lon="1.289179">
      <ele>298</ele>
      <time>2026-02-07T14:13:39.000Z</time>
    </trkpt>
    <trkpt lat="45.250299" lon="1.288886">
      <ele>296</ele>
      <time>2026-02-07T14:14:01.000Z</time>
    </trkpt>
    <trkpt lat="45.250194" lon="1.288592">
      <ele>294</ele>
      <time>2026-02-07T14:14:51.000Z</time>
    </trkpt>
    <trkpt lat="45.25011" lon="1.288295">
      <ele>292</ele>
      <time>2026-02-07T14:15:14.000Z</time>
    </trkpt>
    <trkpt lat="45.250002" lon="1.288002">
      <ele>289</ele>
      <time>2026-02-07T14:15:35.000Z</time>
    </trkpt>
    <trkpt lat="45.249855" lon="1.287737">
      <ele>286</ele>
      <time>2026-02-07T14:15:57.000Z</time>
    </trkpt>
    <trkpt lat="45.249752" lon="1.287453">
      <ele>283</ele>
      <time>2026-02-07T14:16:17.000Z</time>
    </trkpt>
    <trkpt lat="45.24959" lon="1.287231">
      <ele>283</ele>
      <time>2026-02-07T14:16:40.000Z</time>
    </trkpt>
    <trkpt lat="45.249495" lon="1.286938">
      <ele>283</ele>
      <time>2026-02-07T14:17:01.000Z</time>
    </trkpt>
    <trkpt lat="45.249336" lon="1.286699">
      <ele>283</ele>
      <time>2026-02-07T14:17:20.000Z</time>
    </trkpt>
    <trkpt lat="45.249141" lon="1.286504">
      <ele>283</ele>
      <time>2026-02-07T14:17:43.000Z</time>
    </trkpt>
    <trkpt lat="45.248935" lon="1.286348">
      <ele>283</ele>
      <time>2026-02-07T14:18:01.000Z</time>
    </trkpt>
    <trkpt lat="45.248713" lon="1.286243">
      <ele>285</ele>
      <time>2026-02-07T14:18:22.000Z</time>
    </trkpt>
    <trkpt lat="45.248509" lon="1.286091">
      <ele>286</ele>
      <time>2026-02-07T14:18:40.000Z</time>
    </trkpt>
    <trkpt lat="45.248506" lon="1.286103">
      <ele>280</ele>
      <time>2026-02-07T14:18:41.000Z</time>
    </trkpt>
    <trkpt lat="45.248501" lon="1.286101">
      <ele>280</ele>
      <time>2026-02-07T14:18:42.000Z</time>
    </trkpt>
    <trkpt lat="45.247955" lon="1.286197">
      <ele>283</ele>
      <time>2026-02-07T14:20:16.000Z</time>
    </trkpt>
    <trkpt lat="45.247955" lon="1.286197">
      <ele>283</ele>
      <time>2026-02-07T14:20:16.000Z</time>
    </trkpt>
    <trkpt lat="45.247507" lon="1.286308">
      <ele>287</ele>
      <time>2026-02-07T14:21:49.000Z</time>
    </trkpt>
    <trkpt lat="45.247332" lon="1.2864">
      <ele>286</ele>
      <time>2026-02-07T14:22:10.000Z</time>
    </trkpt>
    <trkpt lat="45.247036" lon="1.286756">
      <ele>286</ele>
      <time>2026-02-07T14:22:54.000Z</time>
    </trkpt>
    <trkpt lat="45.246779" lon="1.287423">
      <ele>287</ele>
      <time>2026-02-07T14:24:06.000Z</time>
    </trkpt>
    <trkpt lat="45.246578" lon="1.287663">
      <ele>289</ele>
      <time>2026-02-07T14:24:57.000Z</time>
    </trkpt>
    <trkpt lat="45.246048" lon="1.288125">
      <ele>293</ele>
      <time>2026-02-07T14:26:49.000Z</time>
    </trkpt>
    <trkpt lat="45.245316" lon="1.288938">
      <ele>294</ele>
      <time>2026-02-07T14:28:46.000Z</time>
    </trkpt>
    <trkpt lat="45.245078" lon="1.289062">
      <ele>291</ele>
      <time>2026-02-07T14:29:15.000Z</time>
    </trkpt>
    <trkpt lat="45.24489" lon="1.289215">
      <ele>287</ele>
      <time>2026-02-07T14:29:40.000Z</time>
    </trkpt>
    <trkpt lat="45.244409" lon="1.289707">
      <ele>281</ele>
      <time>2026-02-07T14:30:48.000Z</time>
    </trkpt>
    <trkpt lat="45.243824" lon="1.290042">
      <ele>280</ele>
      <time>2026-02-07T14:32:00.000Z</time>
    </trkpt>
    <trkpt lat="45.243368" lon="1.290564">
      <ele>279</ele>
      <time>2026-02-07T14:33:07.000Z</time>
    </trkpt>
    <trkpt lat="45.243374" lon="1.290578">
      <ele>281</ele>
      <time>2026-02-07T14:29:27.000Z</time>
    </trkpt>
    <trkpt lat="45.243368" lon="1.290564">
      <ele>279</ele>
      <time>2026-02-07T14:29:28.000Z</time>
    </trkpt>
    <trkpt lat="45.243284" lon="1.290636">
      <ele>280</ele>
      <time>2026-02-07T14:29:50.000Z</time>
    </trkpt>
    <trkpt lat="45.243165" lon="1.290725">
      <ele>281</ele>
      <time>2026-02-07T14:30:16.000Z</time>
    </trkpt>
    <trkpt lat="45.243165" lon="1.290725">
      <ele>281</ele>
      <time>2026-02-07T14:30:16.000Z</time>
    </trkpt>
    <trkpt lat="45.243188" lon="1.290818">
      <ele>280</ele>
      <time>2026-02-07T14:30:24.000Z</time>
    </trkpt>
    <trkpt lat="45.243187" lon="1.291666">
      <ele>277</ele>
      <time>2026-02-07T14:31:32.000Z</time>
    </trkpt>
    <trkpt lat="45.243092" lon="1.291962">
      <ele>276</ele>
      <time>2026-02-07T14:31:58.000Z</time>
    </trkpt>
    <trkpt lat="45.242831" lon="1.292272">
      <ele>275</ele>
      <time>2026-02-07T14:32:37.000Z</time>
    </trkpt>
    <trkpt lat="45.242792" lon="1.292361">
      <ele>275</ele>
      <time>2026-02-07T14:32:45.000Z</time>
    </trkpt>
    <trkpt lat="45.242361" lon="1.294079">
      <ele>273</ele>
      <time>2026-02-07T14:35:12.000Z</time>
    </trkpt>
    <trkpt lat="45.242341" lon="1.294072">
      <ele>273</ele>
      <time>2026-02-07T14:33:55.000Z</time>
    </trkpt>
    <trkpt lat="45.242388" lon="1.294393">
      <ele>273</ele>
      <time>2026-02-07T14:34:28.000Z</time>
    </trkpt>
    <trkpt lat="45.242546" lon="1.294636">
      <ele>270</ele>
      <time>2026-02-07T14:34:54.000Z</time>
    </trkpt>
    <trkpt lat="45.242677" lon="1.294908">
      <ele>266</ele>
      <time>2026-02-07T14:35:16.000Z</time>
    </trkpt>
    <trkpt lat="45.242866" lon="1.295102">
      <ele>262</ele>
      <time>2026-02-07T14:35:44.000Z</time>
    </trkpt>
    <trkpt lat="45.242863" lon="1.29508">
      <ele>260</ele>
      <time>2026-02-07T14:35:46.000Z</time>
    </trkpt>
    <trkpt lat="45.242868" lon="1.295078">
      <ele>260</ele>
      <time>2026-02-07T14:35:47.000Z</time>
    </trkpt>
    <trkpt lat="45.243206" lon="1.29489">
      <ele>257</ele>
      <time>2026-02-07T14:36:29.000Z</time>
    </trkpt>
    <trkpt lat="45.243344" lon="1.294636">
      <ele>256</ele>
      <time>2026-02-07T14:36:55.000Z</time>
    </trkpt>
    <trkpt lat="45.243432" lon="1.294579">
      <ele>252</ele>
      <time>2026-02-07T14:37:06.000Z</time>
    </trkpt>
    <trkpt lat="45.243432" lon="1.294579">
      <ele>252</ele>
      <time>2026-02-07T14:37:06.000Z</time>
    </trkpt>
    <trkpt lat="45.243459" lon="1.294577">
      <ele>252</ele>
      <time>2026-02-07T14:37:09.000Z</time>
    </trkpt>
    <trkpt lat="45.243602" lon="1.294683">
      <ele>250</ele>
      <time>2026-02-07T14:37:27.000Z</time>
    </trkpt>
    <trkpt lat="45.243703" lon="1.29499">
      <ele>248</ele>
      <time>2026-02-07T14:37:54.000Z</time>
    </trkpt>
    <trkpt lat="45.243734" lon="1.295034">
      <ele>250</ele>
      <time>2026-02-07T14:37:38.000Z</time>
    </trkpt>
    <trkpt lat="45.243703" lon="1.29499">
      <ele>248</ele>
      <time>2026-02-07T14:37:43.000Z</time>
    </trkpt>
    <trkpt lat="45.243741" lon="1.295007">
      <ele>247</ele>
      <time>2026-02-07T14:37:48.000Z</time>
    </trkpt>
    <trkpt lat="45.243796" lon="1.295065">
      <ele>246</ele>
      <time>2026-02-07T14:37:56.000Z</time>
    </trkpt>
    <trkpt lat="45.243919" lon="1.294921">
      <ele>244</ele>
      <time>2026-02-07T14:38:14.000Z</time>
    </trkpt>
    <trkpt lat="45.244018" lon="1.294705">
      <ele>243</ele>
      <time>2026-02-07T14:38:35.000Z</time>
    </trkpt>
    <trkpt lat="45.244098" lon="1.294312">
      <ele>236</ele>
      <time>2026-02-07T14:39:08.000Z</time>
    </trkpt>
    <trkpt lat="45.244196" lon="1.294284">
      <ele>234</ele>
      <time>2026-02-07T14:39:19.000Z</time>
    </trkpt>
    <trkpt lat="45.244299" lon="1.294383">
      <ele>232</ele>
      <time>2026-02-07T14:39:33.000Z</time>
    </trkpt>
    <trkpt lat="45.244322" lon="1.294428">
      <ele>231</ele>
      <time>2026-02-07T14:39:37.000Z</time>
    </trkpt>
    <trkpt lat="45.244367" lon="1.294578">
      <ele>231</ele>
      <time>2026-02-07T14:39:50.000Z</time>
    </trkpt>
    <trkpt lat="45.24446" lon="1.295348">
      <ele>224</ele>
      <time>2026-02-07T14:40:53.000Z</time>
    </trkpt>
    <trkpt lat="45.244454" lon="1.295773">
      <ele>222</ele>
      <time>2026-02-07T14:41:27.000Z</time>
    </trkpt>
    <trkpt lat="45.244391" lon="1.29633">
      <ele>214</ele>
      <time>2026-02-07T14:42:12.000Z</time>
    </trkpt>
    <trkpt lat="45.244335" lon="1.29659">
      <ele>212</ele>
      <time>2026-02-07T14:42:34.000Z</time>
    </trkpt>
    <trkpt lat="45.244136" lon="1.297064">
      <ele>210</ele>
      <time>2026-02-07T14:43:18.000Z</time>
    </trkpt>
    <trkpt lat="45.243882" lon="1.297501">
      <ele>207</ele>
      <time>2026-02-07T14:44:04.000Z</time>
    </trkpt>
    <trkpt lat="45.243858" lon="1.297623">
      <ele>206</ele>
      <time>2026-02-07T14:44:14.000Z</time>
    </trkpt>
    <trkpt lat="45.243858" lon="1.297623">
      <ele>206</ele>
      <time>2026-02-07T14:44:14.000Z</time>
    </trkpt>
    <trkpt lat="45.243876" lon="1.297726">
      <ele>205</ele>
      <time>2026-02-07T14:44:23.000Z</time>
    </trkpt>
    <trkpt lat="45.244068" lon="1.298188">
      <ele>202</ele>
      <time>2026-02-07T14:45:06.000Z</time>
    </trkpt>
    <trkpt lat="45.244325" lon="1.298539">
      <ele>200</ele>
      <time>2026-02-07T14:45:47.000Z</time>
    </trkpt>
    <trkpt lat="45.244895" lon="1.29951">
      <ele>195</ele>
      <time>2026-02-07T14:47:29.000Z</time>
    </trkpt>
    <trkpt lat="45.245207" lon="1.299741">
      <ele>195</ele>
      <time>2026-02-07T14:48:09.000Z</time>
    </trkpt>
    <trkpt lat="45.245351" lon="1.299793">
      <ele>195</ele>
      <time>2026-02-07T14:48:26.000Z</time>
    </trkpt>
    <trkpt lat="45.245572" lon="1.299792">
      <ele>197</ele>
      <time>2026-02-07T14:49:12.000Z</time>
    </trkpt>
    <trkpt lat="45.245591" lon="1.299864">
      <ele>197</ele>
      <time>2026-02-07T14:49:18.000Z</time>
    </trkpt>
    <trkpt lat="45.245567" lon="1.299842">
      <ele>198</ele>
      <time>2026-02-07T14:48:59.000Z</time>
    </trkpt>
    <trkpt lat="45.245591" lon="1.299864">
      <ele>197</ele>
      <time>2026-02-07T14:49:02.000Z</time>
    </trkpt>
    <trkpt lat="45.24559" lon="1.299924">
      <ele>197</ele>
      <time>2026-02-07T14:49:07.000Z</time>
    </trkpt>
    <trkpt lat="45.245387" lon="1.300854">
      <ele>200</ele>
      <time>2026-02-07T14:50:56.000Z</time>
    </trkpt>
    <trkpt lat="45.245266" lon="1.301234">
      <ele>200</ele>
      <time>2026-02-07T14:51:30.000Z</time>
    </trkpt>
    <trkpt lat="45.245161" lon="1.301455">
      <ele>199</ele>
      <time>2026-02-07T14:51:51.000Z</time>
    </trkpt>
    <trkpt lat="45.245161" lon="1.301455">
      <ele>199</ele>
      <time>2026-02-07T14:51:51.000Z</time>
    </trkpt>
    <trkpt lat="45.245247" lon="1.301569">
      <ele>201</ele>
      <time>2026-02-07T14:52:25.000Z</time>
    </trkpt>
    <trkpt lat="45.245335" lon="1.301877">
      <ele>204</ele>
      <time>2026-02-07T14:53:23.000Z</time>
    </trkpt>
    <trkpt lat="45.245439" lon="1.301897">
      <ele>207</ele>
      <time>2026-02-07T14:54:06.000Z</time>
    </trkpt>
    <trkpt lat="45.245441" lon="1.301911">
      <ele>202</ele>
      <time>2026-02-07T14:52:44.000Z</time>
    </trkpt>
    <trkpt lat="45.245439" lon="1.301897">
      <ele>207</ele>
      <time>2026-02-07T14:53:37.000Z</time>
    </trkpt>
    <trkpt lat="45.245466" lon="1.301888">
      <ele>207</ele>
      <time>2026-02-07T14:53:40.000Z</time>
    </trkpt>
    <trkpt lat="45.245821" lon="1.301593">
      <ele>214</ele>
      <time>2026-02-07T14:55:39.000Z</time>
    </trkpt>
    <trkpt lat="45.24617" lon="1.301401">
      <ele>220</ele>
      <time>2026-02-07T14:57:24.000Z</time>
    </trkpt>
    <trkpt lat="45.246324" lon="1.301244">
      <ele>222</ele>
      <time>2026-02-07T14:58:06.000Z</time>
    </trkpt>
    <trkpt lat="45.246728" lon="1.300432">
      <ele>224</ele>
      <time>2026-02-07T14:59:47.000Z</time>
    </trkpt>
    <trkpt lat="45.246861" lon="1.299649">
      <ele>231</ele>
      <time>2026-02-07T15:02:04.000Z</time>
    </trkpt>
    <trkpt lat="45.246861" lon="1.299649">
      <ele>231</ele>
      <time>2026-02-07T15:02:04.000Z</time>
    </trkpt>
    <trkpt lat="45.246885" lon="1.299573">
      <ele>233</ele>
      <time>2026-02-07T15:02:31.000Z</time>
    </trkpt>
    <trkpt lat="45.247061" lon="1.299389">
      <ele>236</ele>
      <time>2026-02-07T15:03:27.000Z</time>
    </trkpt>
    <trkpt lat="45.247728" lon="1.298948">
      <ele>245</ele>
      <time>2026-02-07T15:06:24.000Z</time>
    </trkpt>
    <trkpt lat="45.248119" lon="1.298603">
      <ele>248</ele>
      <time>2026-02-07T15:07:48.000Z</time>
    </trkpt>
    <trkpt lat="45.248304" lon="1.298311">
      <ele>251</ele>
      <time>2026-02-07T15:08:51.000Z</time>
    </trkpt>
    <trkpt lat="45.248465" lon="1.297929">
      <ele>255</ele>
      <time>2026-02-07T15:10:08.000Z</time>
    </trkpt>
    <trkpt lat="45.248903" lon="1.297194">
      <ele>262</ele>
      <time>2026-02-07T15:12:38.000Z</time>
    </trkpt>
    <trkpt lat="45.248954" lon="1.297133">
      <ele>263</ele>
      <time>2026-02-07T15:12:56.000Z</time>
    </trkpt>
    <trkpt lat="45.249374" lon="1.296975">
      <ele>267</ele>
      <time>2026-02-07T15:14:27.000Z</time>
    </trkpt>
    <trkpt lat="45.249366" lon="1.296962">
      <ele>265</ele>
      <time>2026-02-07T15:04:02.000Z</time>
    </trkpt>
    <trkpt lat="45.249449" lon="1.296654">
      <ele>269</ele>
      <time>2026-02-07T15:04:35.000Z</time>
    </trkpt>
    <trkpt lat="45.249511" lon="1.296346">
      <ele>272</ele>
      <time>2026-02-07T15:05:06.000Z</time>
    </trkpt>
    <trkpt lat="45.249479" lon="1.296019">
      <ele>274</ele>
      <time>2026-02-07T15:05:32.000Z</time>
    </trkpt>
    <trkpt lat="45.249426" lon="1.295698">
      <ele>275</ele>
      <time>2026-02-07T15:05:59.000Z</time>
    </trkpt>
    <trkpt lat="45.249404" lon="1.295373">
      <ele>278</ele>
      <time>2026-02-07T15:11:24.000Z</time>
    </trkpt>
    <trkpt lat="45.249451" lon="1.295052">
      <ele>278</ele>
      <time>2026-02-07T15:11:49.000Z</time>
    </trkpt>
    <trkpt lat="45.24952" lon="1.294738">
      <ele>277</ele>
      <time>2026-02-07T15:12:17.000Z</time>
    </trkpt>
    <trkpt lat="45.249547" lon="1.294769">
      <ele>279</ele>
      <time>2026-02-07T15:12:42.000Z</time>
    </trkpt>
    <trkpt lat="45.249557" lon="1.294751">
      <ele>279</ele>
      <time>2026-02-07T15:12:44.000Z</time>
    </trkpt>
    <trkpt lat="45.24976" lon="1.294453">
      <ele>279</ele>
      <time>2026-02-07T15:13:17.000Z</time>
    </trkpt>
    <trkpt lat="45.250002" lon="1.294218">
      <ele>281</ele>
      <time>2026-02-07T15:14:11.000Z</time>
    </trkpt>
    <trkpt lat="45.250188" lon="1.294098">
      <ele>280</ele>
      <time>2026-02-07T15:14:34.000Z</time>
    </trkpt>
    <trkpt lat="45.250335" lon="1.293928">
      <ele>281</ele>
      <time>2026-02-07T15:15:06.000Z</time>
    </trkpt>
    <trkpt lat="45.250739" lon="1.293315">
      <ele>281</ele>
      <time>2026-02-07T15:16:14.000Z</time>
    </trkpt>
    <trkpt lat="45.250739" lon="1.293315">
      <ele>281</ele>
      <time>2026-02-07T15:16:14.000Z</time>
    </trkpt>
    <trkpt lat="45.250879" lon="1.29309">
      <ele>281</ele>
      <time>2026-02-07T15:16:38.000Z</time>
    </trkpt>
    <trkpt lat="45.251289" lon="1.29252">
      <ele>285</ele>
      <time>2026-02-07T15:18:25.000Z</time>
    </trkpt>
    <trkpt lat="45.25141" lon="1.292405">
      <ele>287</ele>
      <time>2026-02-07T15:19:02.000Z</time>
    </trkpt>
    <trkpt lat="45.251405" lon="1.292391">
      <ele>282</ele>
      <time>2026-02-07T15:16:41.000Z</time>
    </trkpt>
    <trkpt lat="45.25163" lon="1.29232">
      <ele>285</ele>
      <time>2026-02-07T15:17:04.000Z</time>
    </trkpt>
    <trkpt lat="45.251862" lon="1.292305">
      <ele>283</ele>
      <time>2026-02-07T15:17:45.000Z</time>
    </trkpt>
    <trkpt lat="45.252089" lon="1.292388">
      <ele>280</ele>
      <time>2026-02-07T15:18:20.000Z</time>
    </trkpt>
    <trkpt lat="45.252302" lon="1.292539">
      <ele>277</ele>
      <time>2026-02-07T15:18:54.000Z</time>
    </trkpt>
    <trkpt lat="45.252536" lon="1.292553">
      <ele>273</ele>
      <time>2026-02-07T15:19:16.000Z</time>
    </trkpt>
    <trkpt lat="45.252691" lon="1.292785">
      <ele>270</ele>
      <time>2026-02-07T15:20:18.000Z</time>
    </trkpt>
    <trkpt lat="45.252903" lon="1.292905">
      <ele>268</ele>
      <time>2026-02-07T15:20:51.000Z</time>
    </trkpt>
    <trkpt lat="45.253068" lon="1.293126">
      <ele>269</ele>
      <time>2026-02-07T15:22:01.000Z</time>
    </trkpt>
    <trkpt lat="45.25327" lon="1.293281">
      <ele>271</ele>
      <time>2026-02-07T15:22:33.000Z</time>
    </trkpt>
    <trkpt lat="45.253255" lon="1.293304">
      <ele>272</ele>
      <time>2026-02-07T15:22:46.000Z</time>
    </trkpt>
    <trkpt lat="45.253299" lon="1.293362">
      <ele>274</ele>
      <time>2026-02-07T15:23:13.000Z</time>
    </trkpt>
    <trkpt lat="45.253542" lon="1.294061">
      <ele>275</ele>
      <time>2026-02-07T15:24:26.000Z</time>
    </trkpt>
    <trkpt lat="45.253542" lon="1.294061">
      <ele>275</ele>
      <time>2026-02-07T15:24:26.000Z</time>
    </trkpt>
    <trkpt lat="45.253582" lon="1.294157">
      <ele>277</ele>
      <time>2026-02-07T15:24:56.000Z</time>
    </trkpt>
    <trkpt lat="45.253868" lon="1.294832">
      <ele>277</ele>
      <time>2026-02-07T15:26:00.000Z</time>
    </trkpt>
    <trkpt lat="45.253985" lon="1.295652">
      <ele>274</ele>
      <time>2026-02-07T15:27:07.000Z</time>
    </trkpt>
    <trkpt lat="45.254018" lon="1.295647">
      <ele>271</ele>
      <time>2026-02-07T15:25:48.000Z</time>
    </trkpt>
    <trkpt lat="45.253869" lon="1.295887">
      <ele>271</ele>
      <time>2026-02-07T15:28:23.000Z</time>
    </trkpt>
    <trkpt lat="45.253961" lon="1.296183">
      <ele>272</ele>
      <time>2026-02-07T15:29:06.000Z</time>
    </trkpt>
    <trkpt lat="45.254107" lon="1.296433">
      <ele>274</ele>
      <time>2026-02-07T15:29:31.000Z</time>
    </trkpt>
    <trkpt lat="45.254277" lon="1.296654">
      <ele>275</ele>
      <time>2026-02-07T15:29:54.000Z</time>
    </trkpt>
    <trkpt lat="45.254447" lon="1.296885">
      <ele>275</ele>
      <time>2026-02-07T15:30:18.000Z</time>
    </trkpt>
    <trkpt lat="45.254635" lon="1.297064">
      <ele>276</ele>
      <time>2026-02-07T15:30:39.000Z</time>
    </trkpt>
    <trkpt lat="45.254857" lon="1.297159">
      <ele>278</ele>
      <time>2026-02-07T15:31:06.000Z</time>
    </trkpt>
    <trkpt lat="45.255087" lon="1.297203">
      <ele>281</ele>
      <time>2026-02-07T15:31:34.000Z</time>
    </trkpt>
    <trkpt lat="45.255317" lon="1.297191">
      <ele>284</ele>
      <time>2026-02-07T15:32:02.000Z</time>
    </trkpt>
    <trkpt lat="45.255551" lon="1.297159">
      <ele>287</ele>
      <time>2026-02-07T15:32:32.000Z</time>
    </trkpt>
    <trkpt lat="45.255775" lon="1.297117">
      <ele>290</ele>
      <time>2026-02-07T15:33:01.000Z</time>
    </trkpt>
    <trkpt lat="45.255996" lon="1.29722">
      <ele>292</ele>
      <time>2026-02-07T15:33:29.000Z</time>
    </trkpt>
    <trkpt lat="45.255984" lon="1.297264">
      <ele>299</ele>
      <time>2026-02-07T15:34:45.000Z</time>
    </trkpt>
    <trkpt lat="45.255992" lon="1.297269">
      <ele>299</ele>
      <time>2026-02-07T15:34:46.000Z</time>
    </trkpt>
    <trkpt lat="45.256085" lon="1.297274">
      <ele>300</ele>
      <time>2026-02-07T15:35:07.000Z</time>
    </trkpt>
    <trkpt lat="45.255591" lon="1.29621">
      <ele>312</ele>
      <time>2026-02-07T15:38:53.000Z</time>
    </trkpt>
    <trkpt lat="45.255486" lon="1.29579">
      <ele>315</ele>
      <time>2026-02-07T15:40:00.000Z</time>
    </trkpt>
    <trkpt lat="45.25537" lon="1.295471">
      <ele>318</ele>
      <time>2026-02-07T15:41:00.000Z</time>
    </trkpt>
    <trkpt lat="45.255187" lon="1.295165">
      <ele>322</ele>
      <time>2026-02-07T15:42:14.000Z</time>
    </trkpt>
    <trkpt lat="45.255137" lon="1.294221">
      <ele>329</ele>
      <time>2026-02-07T15:44:42.000Z</time>
    </trkpt>
    <trkpt lat="45.255154" lon="1.294002">
      <ele>330</ele>
      <time>2026-02-07T15:45:10.000Z</time>
    </trkpt>
    <trkpt lat="45.255132" lon="1.293529">
      <ele>330</ele>
      <time>2026-02-07T15:45:48.000Z</time>
    </trkpt>
    <trkpt lat="45.254894" lon="1.293179">
      <ele>328</ele>
      <time>2026-02-07T15:46:27.000Z</time>
    </trkpt>
    <trkpt lat="45.25471" lon="1.292826">
      <ele>326</ele>
      <time>2026-02-07T15:47:02.000Z</time>
    </trkpt>
    <trkpt lat="45.254695" lon="1.292736">
      <ele>326</ele>
      <time>2026-02-07T15:47:09.000Z</time>
    </trkpt>
    <trkpt lat="45.254896" lon="1.29191">
      <ele>327</ele>
      <time>2026-02-07T15:48:30.000Z</time>
    </trkpt>
    <trkpt lat="45.254899" lon="1.291663">
      <ele>327</ele>
      <time>2026-02-07T15:48:50.000Z</time>
    </trkpt>
    <trkpt lat="45.254839" lon="1.291487">
      <ele>326</ele>
      <time>2026-02-07T15:49:06.000Z</time>
    </trkpt>
    <trkpt lat="45.254937" lon="1.291376">
      <ele>327</ele>
      <time>2026-02-07T15:49:31.000Z</time>
    </trkpt>
  </trkseg>
</trk></gpx>